Presidio, California
Current Conditions -  °F | °C
As of 1:56 PM on Wednesday 28 Jan 2015 (Local Time) from KSFO Reporting Station
Broken Clouds Broken Clouds  
Wind Chill: 62°   Ceiling: 20000
Heat Index: 62°   Visibility: 9mi
Dew Point: 52°   Wind: 0mph
Humidity: 70%   Direction: NA
Pressure: 30.19"   Gusts: NA
Location:  37.7976°N, 122.466°W
Report Text: KSFO 282156Z 00000KT 9SM BKN200 17/11 A3019 RMK AO2 SLP223 T01670111
Loading
Personal Weather Stations






























Interactive Weather Map New forecast layout! Learn more

10-Day Weather Forecast

Advertisements
Track Severe Weather on mobile